Terminal Aerodrome Forecast
Issued by NWS Pocatello, ID

Home | Current Version | Previous Version | Text Only | Print | Product List | Glossary On
Versions: 1 2 3 4 5 6 7 8 9 10 11 12 13 14 15 16 17 18 19 20 21
000
FTUS45 KPIH 290500
TAFBYI
TAF
KBYI 290520Z 2906/3006 VRB03KT 1/2SM FZFG VV002
     FM291700 05006KT 2SM BR OVC006
     FM291900 06007KT 6SM BR BKN008=

USA.gov is the U.S. government's official web portal to all federal, state and local government web resources and services.